Search for airport 
image banner adimage banner adimage banner ad
image banner ad

KMCW - Mason City Muni

Located in Mason City, United States

ICAO - MCW, IATA - MCW

Data provided by Airmate  

General information

Coordinates: N43°9'28" W93°19'53"
Elevation is 1213 feet MSL.
Magnetic variation is 00° East
View others Airports in Iowa

Operational data

Special qualification required
Current time UTC:
Current local time:
Weather
METAR: KMCW 181753Z AUTO 31004KT 10SM CLR 31/12 A2989 RMK AO2 SLP107 T03060122 10311 20183 53004
TAF: KMCW 181724Z 1818/1918 36004KT P6SM SCT250 FM182300 24006KT P6SM FEW200 FM190700 35008KT P6SM FEW250
View NOTAMs / SUP AIP / TFR affecting this airport [VIEW]
Communications frequencies: [VIEW]

Runways:

RWY identifierQFULength (ft)Width (ft)SurfaceLDA (ft)
12125°5502150ASPH5501
30305°5502150ASPH5501
18180°6501150ASPH6501
36360°6501150ASPH6401

Airport contact information

Address: Mason City United States

Other aviation service providers

Flight schools

North Iowa Air Service

North Iowa Air Service
todd@northiowaair.com+1(641)424-9366

Satellite view of KMCW